Main page
METAR-TAF:

METAR-TAF

Airports :

Kirksville Regional Airport

Kirksville, Missouri, United States

latitude: 40-05-50N, longitude: 092-32-36W, elevation: 964 ft

Current weather observation

The report was made 22 minutes ago, at 21:55 UTC
Wind 12 mph from the North/Northeast
Temperature 28°F
Humidity 36%
Pressure 30.72 in. Hg
Visibility: 10 miles
Clear sky

METAR: KIRK 202155Z AUTO 03010KT 10SM CLR M02/M15 A3072 RMK AO2 SLP420 T10221150

Time: 16:17 (22:17 UTC)


TAF: missing

Weather observations and forecasts of more than 4000 airports (METAR and TAF reports).

The available stations are represented by yellow and red dots on the map.

Hover mouse over dot to see the name of the station.

Then click to see weather observations and forecasts.

To change the map : click on the green buttons with a black cross to zoom in, on the green button with a dash to zoom out, or on the green arrows for adjacent maps.


METAR-TAF: